<?xml version="1.0" encoding="UTF-8" standalone="no" ?>
<gpx xmlns="http://www.topografix.com/GPX/1/1" xmlns:xsi="http://www.w3.org/2001/XMLSchema-instance" xsi:schemaLocation="http://www.topografix.com/GPX/1/1 http://www.topografix.com/GPX/1/1/gpx.xsd" version="1.1" creator="VisuGPX - https://www.visugpx.com">
  <metadata>
    <name>Boucle du Caudeau</name>
    <desc><![CDATA[Boucle au départ de St Michel de Villadeix]]></desc>
  </metadata>
  <trk>
    <name><![CDATA[Boucle du Caudeau_1]]></name>
    <trkseg>
      <trkpt lat="44.98641" lon="0.72307">
        <ele>169</ele>
        <time>2019-08-13T15:40:52Z</time>
      </trkpt>
      <trkpt lat="44.98652" lon="0.72358">
        <ele>171.3</ele>
        <time>2019-08-13T15:41:07Z</time>
      </trkpt>
      <trkpt lat="44.98674" lon="0.72412">
        <ele>175.8</ele>
        <time>2019-08-13T15:41:22Z</time>
      </trkpt>
      <trkpt lat="44.98694" lon="0.72451">
        <ele>178.9</ele>
        <time>2019-08-13T15:41:37Z</time>
      </trkpt>
      <trkpt lat="44.98712" lon="0.7249">
        <ele>182</ele>
        <time>2019-08-13T15:41:52Z</time>
      </trkpt>
      <trkpt lat="44.98726" lon="0.72534">
        <ele>185.5</ele>
        <time>2019-08-13T15:42:07Z</time>
      </trkpt>
      <trkpt lat="44.98732" lon="0.72572">
        <ele>188.2</ele>
        <time>2019-08-13T15:42:22Z</time>
      </trkpt>
      <trkpt lat="44.98737" lon="0.72606">
        <ele>190.6</ele>
        <time>2019-08-13T15:42:37Z</time>
      </trkpt>
      <trkpt lat="44.98697" lon="0.72596">
        <ele>190</ele>
        <time>2019-08-13T15:42:52Z</time>
      </trkpt>
      <trkpt lat="44.98655" lon="0.72593">
        <ele>188.6</ele>
        <time>2019-08-13T15:43:07Z</time>
      </trkpt>
      <trkpt lat="44.98612" lon="0.72594">
        <ele>187.3</ele>
        <time>2019-08-13T15:43:22Z</time>
      </trkpt>
      <trkpt lat="44.98567" lon="0.72605">
        <ele>185.7</ele>
        <time>2019-08-13T15:43:37Z</time>
      </trkpt>
      <trkpt lat="44.98541" lon="0.72603">
        <ele>184.8</ele>
        <time>2019-08-13T15:43:47Z</time>
      </trkpt>
      <trkpt lat="44.98501" lon="0.72605">
        <ele>183.4</ele>
        <time>2019-08-13T15:44:02Z</time>
      </trkpt>
      <trkpt lat="44.98458" lon="0.72602">
        <ele>182</ele>
        <time>2019-08-13T15:44:17Z</time>
      </trkpt>
      <trkpt lat="44.98413" lon="0.72605">
        <ele>180.2</ele>
        <time>2019-08-13T15:44:32Z</time>
      </trkpt>
      <trkpt lat="44.98365" lon="0.72611">
        <ele>178.5</ele>
        <time>2019-08-13T15:44:47Z</time>
      </trkpt>
      <trkpt lat="44.98321" lon="0.72623">
        <ele>177</ele>
        <time>2019-08-13T15:45:02Z</time>
      </trkpt>
      <trkpt lat="44.98274" lon="0.72636">
        <ele>175.2</ele>
        <time>2019-08-13T15:45:17Z</time>
      </trkpt>
      <trkpt lat="44.98235" lon="0.72661">
        <ele>173.6</ele>
        <time>2019-08-13T15:45:32Z</time>
      </trkpt>
      <trkpt lat="44.98192" lon="0.7267">
        <ele>167.5</ele>
        <time>2019-08-13T15:45:47Z</time>
      </trkpt>
      <trkpt lat="44.98148" lon="0.72689">
        <ele>160.6</ele>
        <time>2019-08-13T15:46:02Z</time>
      </trkpt>
      <trkpt lat="44.98109" lon="0.72712">
        <ele>154.3</ele>
        <time>2019-08-13T15:46:17Z</time>
      </trkpt>
      <trkpt lat="44.98062" lon="0.72728">
        <ele>147</ele>
        <time>2019-08-13T15:46:32Z</time>
      </trkpt>
      <trkpt lat="44.98047" lon="0.72756">
        <ele>142.7</ele>
        <time>2019-08-13T15:46:47Z</time>
      </trkpt>
      <trkpt lat="44.98085" lon="0.7279">
        <ele>143.5</ele>
        <time>2019-08-13T15:47:02Z</time>
      </trkpt>
      <trkpt lat="44.98123" lon="0.72823">
        <ele>144.4</ele>
        <time>2019-08-13T15:47:17Z</time>
      </trkpt>
      <trkpt lat="44.98157" lon="0.72852">
        <ele>145.1</ele>
        <time>2019-08-13T15:47:32Z</time>
      </trkpt>
      <trkpt lat="44.98189" lon="0.72882">
        <ele>145.8</ele>
        <time>2019-08-13T15:47:47Z</time>
      </trkpt>
      <trkpt lat="44.98223" lon="0.72913">
        <ele>146.7</ele>
        <time>2019-08-13T15:48:02Z</time>
      </trkpt>
      <trkpt lat="44.98261" lon="0.72939">
        <ele>147.5</ele>
        <time>2019-08-13T15:48:17Z</time>
      </trkpt>
      <trkpt lat="44.98299" lon="0.72967">
        <ele>148.3</ele>
        <time>2019-08-13T15:48:32Z</time>
      </trkpt>
      <trkpt lat="44.98338" lon="0.72996">
        <ele>149.2</ele>
        <time>2019-08-13T15:48:47Z</time>
      </trkpt>
      <trkpt lat="44.98376" lon="0.7302">
        <ele>150.1</ele>
        <time>2019-08-13T15:49:02Z</time>
      </trkpt>
      <trkpt lat="44.98387" lon="0.73076">
        <ele>151</ele>
        <time>2019-08-13T15:49:17Z</time>
      </trkpt>
      <trkpt lat="44.98398" lon="0.73129">
        <ele>151.9</ele>
        <time>2019-08-13T15:49:32Z</time>
      </trkpt>
      <trkpt lat="44.98422" lon="0.73181">
        <ele>152.9</ele>
        <time>2019-08-13T15:49:47Z</time>
      </trkpt>
      <trkpt lat="44.98456" lon="0.73217">
        <ele>153.7</ele>
        <time>2019-08-13T15:50:02Z</time>
      </trkpt>
      <trkpt lat="44.9849" lon="0.73255">
        <ele>154.6</ele>
        <time>2019-08-13T15:50:17Z</time>
      </trkpt>
      <trkpt lat="44.98516" lon="0.73297">
        <ele>155.4</ele>
        <time>2019-08-13T15:50:32Z</time>
      </trkpt>
      <trkpt lat="44.98544" lon="0.73339">
        <ele>156.3</ele>
        <time>2019-08-13T15:50:47Z</time>
      </trkpt>
      <trkpt lat="44.98572" lon="0.7337">
        <ele>157</ele>
        <time>2019-08-13T15:51:02Z</time>
      </trkpt>
      <trkpt lat="44.98602" lon="0.734">
        <ele>157.8</ele>
        <time>2019-08-13T15:51:17Z</time>
      </trkpt>
      <trkpt lat="44.98634" lon="0.73426">
        <ele>158.5</ele>
        <time>2019-08-13T15:51:32Z</time>
      </trkpt>
      <trkpt lat="44.98656" lon="0.7348">
        <ele>159.5</ele>
        <time>2019-08-13T15:51:47Z</time>
      </trkpt>
      <trkpt lat="44.98654" lon="0.73534">
        <ele>162.1</ele>
        <time>2019-08-13T15:52:02Z</time>
      </trkpt>
      <trkpt lat="44.98659" lon="0.73589">
        <ele>165.2</ele>
        <time>2019-08-13T15:52:17Z</time>
      </trkpt>
      <trkpt lat="44.98652" lon="0.7363">
        <ele>168</ele>
        <time>2019-08-13T15:52:32Z</time>
      </trkpt>
      <trkpt lat="44.98631" lon="0.73665">
        <ele>170.7</ele>
        <time>2019-08-13T15:52:47Z</time>
      </trkpt>
      <trkpt lat="44.98619" lon="0.73711">
        <ele>173.1</ele>
        <time>2019-08-13T15:53:02Z</time>
      </trkpt>
      <trkpt lat="44.98615" lon="0.73755">
        <ele>174.1</ele>
        <time>2019-08-13T15:53:17Z</time>
      </trkpt>
      <trkpt lat="44.98623" lon="0.73802">
        <ele>176.5</ele>
        <time>2019-08-13T15:53:32Z</time>
      </trkpt>
      <trkpt lat="44.98635" lon="0.73848">
        <ele>178.9</ele>
        <time>2019-08-13T15:53:47Z</time>
      </trkpt>
      <trkpt lat="44.98651" lon="0.73892">
        <ele>181.4</ele>
        <time>2019-08-13T15:54:02Z</time>
      </trkpt>
      <trkpt lat="44.9866" lon="0.7394">
        <ele>184.2</ele>
        <time>2019-08-13T15:54:17Z</time>
      </trkpt>
      <trkpt lat="44.98665" lon="0.73991">
        <ele>187</ele>
        <time>2019-08-13T15:54:32Z</time>
      </trkpt>
      <trkpt lat="44.98673" lon="0.74044">
        <ele>190</ele>
        <time>2019-08-13T15:54:47Z</time>
      </trkpt>
      <trkpt lat="44.98683" lon="0.74097">
        <ele>192.7</ele>
        <time>2019-08-13T15:55:02Z</time>
      </trkpt>
      <trkpt lat="44.98695" lon="0.74146">
        <ele>195.2</ele>
        <time>2019-08-13T15:55:17Z</time>
      </trkpt>
      <trkpt lat="44.98697" lon="0.74198">
        <ele>197.5</ele>
        <time>2019-08-13T15:55:32Z</time>
      </trkpt>
      <trkpt lat="44.98707" lon="0.74243">
        <ele>199.9</ele>
        <time>2019-08-13T15:55:47Z</time>
      </trkpt>
      <trkpt lat="44.98707" lon="0.74281">
        <ele>202.6</ele>
        <time>2019-08-13T15:56:02Z</time>
      </trkpt>
      <trkpt lat="44.98685" lon="0.7427">
        <ele>202.9</ele>
        <time>2019-08-13T15:56:12Z</time>
      </trkpt>
      <trkpt lat="44.98648" lon="0.74249">
        <ele>203.1</ele>
        <time>2019-08-13T15:56:27Z</time>
      </trkpt>
      <trkpt lat="44.98627" lon="0.74268">
        <ele>203.1</ele>
        <time>2019-08-13T15:56:42Z</time>
      </trkpt>
      <trkpt lat="44.98615" lon="0.74321">
        <ele>203.2</ele>
        <time>2019-08-13T15:56:57Z</time>
      </trkpt>
      <trkpt lat="44.98593" lon="0.74377">
        <ele>203.3</ele>
        <time>2019-08-13T15:57:12Z</time>
      </trkpt>
      <trkpt lat="44.98567" lon="0.74429">
        <ele>203.4</ele>
        <time>2019-08-13T15:57:27Z</time>
      </trkpt>
      <trkpt lat="44.98542" lon="0.74483">
        <ele>203.5</ele>
        <time>2019-08-13T15:57:42Z</time>
      </trkpt>
      <trkpt lat="44.98521" lon="0.74538">
        <ele>203.6</ele>
        <time>2019-08-13T15:57:57Z</time>
      </trkpt>
      <trkpt lat="44.98496" lon="0.74583">
        <ele>203.7</ele>
        <time>2019-08-13T15:58:12Z</time>
      </trkpt>
      <trkpt lat="44.98486" lon="0.74639">
        <ele>203.8</ele>
        <time>2019-08-13T15:58:27Z</time>
      </trkpt>
      <trkpt lat="44.98464" lon="0.74691">
        <ele>203.9</ele>
        <time>2019-08-13T15:58:42Z</time>
      </trkpt>
      <trkpt lat="44.98425" lon="0.74691">
        <ele>202.2</ele>
        <time>2019-08-13T15:58:57Z</time>
      </trkpt>
      <trkpt lat="44.98379" lon="0.747">
        <ele>202.2</ele>
        <time>2019-08-13T15:59:12Z</time>
      </trkpt>
      <trkpt lat="44.98336" lon="0.74722">
        <ele>201.9</ele>
        <time>2019-08-13T15:59:27Z</time>
      </trkpt>
      <trkpt lat="44.98295" lon="0.74744">
        <ele>202.1</ele>
        <time>2019-08-13T15:59:42Z</time>
      </trkpt>
      <trkpt lat="44.98257" lon="0.74763">
        <ele>201.6</ele>
        <time>2019-08-13T15:59:57Z</time>
      </trkpt>
      <trkpt lat="44.9822" lon="0.74791">
        <ele>200.6</ele>
        <time>2019-08-13T16:00:12Z</time>
      </trkpt>
      <trkpt lat="44.98194" lon="0.74805">
        <ele>200</ele>
        <time>2019-08-13T16:00:27Z</time>
      </trkpt>
      <trkpt lat="44.98134" lon="0.74833">
        <ele>198.7</ele>
        <time>2019-08-13T16:00:42Z</time>
      </trkpt>
      <trkpt lat="44.98088" lon="0.74857">
        <ele>197.7</ele>
        <time>2019-08-13T16:00:57Z</time>
      </trkpt>
      <trkpt lat="44.98043" lon="0.74874">
        <ele>196.8</ele>
        <time>2019-08-13T16:01:12Z</time>
      </trkpt>
      <trkpt lat="44.97997" lon="0.74886">
        <ele>194.1</ele>
        <time>2019-08-13T16:01:27Z</time>
      </trkpt>
      <trkpt lat="44.97955" lon="0.74908">
        <ele>189.2</ele>
        <time>2019-08-13T16:01:42Z</time>
      </trkpt>
      <trkpt lat="44.97911" lon="0.74933">
        <ele>183.8</ele>
        <time>2019-08-13T16:01:57Z</time>
      </trkpt>
      <trkpt lat="44.97862" lon="0.74946">
        <ele>179.6</ele>
        <time>2019-08-13T16:02:12Z</time>
      </trkpt>
      <trkpt lat="44.97818" lon="0.74965">
        <ele>173.3</ele>
        <time>2019-08-13T16:02:27Z</time>
      </trkpt>
      <trkpt lat="44.97771" lon="0.74967">
        <ele>166.4</ele>
        <time>2019-08-13T16:02:42Z</time>
      </trkpt>
      <trkpt lat="44.97721" lon="0.74969">
        <ele>159.3</ele>
        <time>2019-08-13T16:02:57Z</time>
      </trkpt>
      <trkpt lat="44.97674" lon="0.74965">
        <ele>154.1</ele>
        <time>2019-08-13T16:03:12Z</time>
      </trkpt>
      <trkpt lat="44.97642" lon="0.74921">
        <ele>150.6</ele>
        <time>2019-08-13T16:03:27Z</time>
      </trkpt>
      <trkpt lat="44.97611" lon="0.74873">
        <ele>147.3</ele>
        <time>2019-08-13T16:03:42Z</time>
      </trkpt>
      <trkpt lat="44.97601" lon="0.74815">
        <ele>145.5</ele>
        <time>2019-08-13T16:03:57Z</time>
      </trkpt>
      <trkpt lat="44.97566" lon="0.74774">
        <ele>142.5</ele>
        <time>2019-08-13T16:04:12Z</time>
      </trkpt>
      <trkpt lat="44.97525" lon="0.74799">
        <ele>142.5</ele>
        <time>2019-08-13T16:04:27Z</time>
      </trkpt>
      <trkpt lat="44.97489" lon="0.74824">
        <ele>144.2</ele>
        <time>2019-08-13T16:04:42Z</time>
      </trkpt>
      <trkpt lat="44.97477" lon="0.74802">
        <ele>147.5</ele>
        <time>2019-08-13T16:04:57Z</time>
      </trkpt>
      <trkpt lat="44.97474" lon="0.74759">
        <ele>150.1</ele>
        <time>2019-08-13T16:05:12Z</time>
      </trkpt>
      <trkpt lat="44.97464" lon="0.74711">
        <ele>150.4</ele>
        <time>2019-08-13T16:05:27Z</time>
      </trkpt>
      <trkpt lat="44.97457" lon="0.74659">
        <ele>148.9</ele>
        <time>2019-08-13T16:05:42Z</time>
      </trkpt>
      <trkpt lat="44.97446" lon="0.74598">
        <ele>147.6</ele>
        <time>2019-08-13T16:05:57Z</time>
      </trkpt>
      <trkpt lat="44.9744" lon="0.74542">
        <ele>147.4</ele>
        <time>2019-08-13T16:06:12Z</time>
      </trkpt>
      <trkpt lat="44.97435" lon="0.74484">
        <ele>147.2</ele>
        <time>2019-08-13T16:06:27Z</time>
      </trkpt>
      <trkpt lat="44.9742" lon="0.74429">
        <ele>146.4</ele>
        <time>2019-08-13T16:06:42Z</time>
      </trkpt>
      <trkpt lat="44.97404" lon="0.74372">
        <ele>145.8</ele>
        <time>2019-08-13T16:06:57Z</time>
      </trkpt>
      <trkpt lat="44.97383" lon="0.74321">
        <ele>145.6</ele>
        <time>2019-08-13T16:07:12Z</time>
      </trkpt>
      <trkpt lat="44.97369" lon="0.74271">
        <ele>145.2</ele>
        <time>2019-08-13T16:07:27Z</time>
      </trkpt>
      <trkpt lat="44.97357" lon="0.74212">
        <ele>143.8</ele>
        <time>2019-08-13T16:07:42Z</time>
      </trkpt>
      <trkpt lat="44.97344" lon="0.74161">
        <ele>142.2</ele>
        <time>2019-08-13T16:07:57Z</time>
      </trkpt>
      <trkpt lat="44.97328" lon="0.741">
        <ele>142.5</ele>
        <time>2019-08-13T16:08:12Z</time>
      </trkpt>
      <trkpt lat="44.97312" lon="0.74061">
        <ele>143.2</ele>
        <time>2019-08-13T16:08:22Z</time>
      </trkpt>
      <trkpt lat="44.97312" lon="0.74061">
        <ele>143.2</ele>
        <time>2019-08-13T16:08:22Z</time>
      </trkpt>
      <trkpt lat="44.97304" lon="0.74045">
        <ele>143.2</ele>
        <time>2019-08-13T16:08:27Z</time>
      </trkpt>
      <trkpt lat="44.9728" lon="0.73995">
        <ele>142.6</ele>
        <time>2019-08-13T16:08:42Z</time>
      </trkpt>
      <trkpt lat="44.97254" lon="0.73946">
        <ele>141.5</ele>
        <time>2019-08-13T16:08:57Z</time>
      </trkpt>
      <trkpt lat="44.97231" lon="0.739">
        <ele>141.1</ele>
        <time>2019-08-13T16:09:12Z</time>
      </trkpt>
      <trkpt lat="44.972" lon="0.73858">
        <ele>140.5</ele>
        <time>2019-08-13T16:09:27Z</time>
      </trkpt>
      <trkpt lat="44.97169" lon="0.73814">
        <ele>140.2</ele>
        <time>2019-08-13T16:09:42Z</time>
      </trkpt>
      <trkpt lat="44.97133" lon="0.73777">
        <ele>138.6</ele>
        <time>2019-08-13T16:09:57Z</time>
      </trkpt>
      <trkpt lat="44.97103" lon="0.73711">
        <ele>135.6</ele>
      </trkpt>
      <trkpt lat="44.97168" lon="0.73591">
        <ele>140.9</ele>
        <time>2019-08-13T15:21:12Z</time>
      </trkpt>
      <trkpt lat="44.97166" lon="0.73528">
        <ele>143.8</ele>
        <time>2019-08-13T15:21:27Z</time>
      </trkpt>
      <trkpt lat="44.97173" lon="0.73476">
        <ele>148.2</ele>
        <time>2019-08-13T15:21:42Z</time>
      </trkpt>
      <trkpt lat="44.97174" lon="0.73432">
        <ele>148.9</ele>
        <time>2019-08-13T15:21:57Z</time>
      </trkpt>
      <trkpt lat="44.97177" lon="0.73373">
        <ele>146.5</ele>
        <time>2019-08-13T15:22:12Z</time>
      </trkpt>
      <trkpt lat="44.97198" lon="0.7332">
        <ele>146</ele>
        <time>2019-08-13T15:22:27Z</time>
      </trkpt>
      <trkpt lat="44.97217" lon="0.73273">
        <ele>143.4</ele>
        <time>2019-08-13T15:22:42Z</time>
      </trkpt>
      <trkpt lat="44.97245" lon="0.73238">
        <ele>142.2</ele>
        <time>2019-08-13T15:22:57Z</time>
      </trkpt>
      <trkpt lat="44.97266" lon="0.7319">
        <ele>141.9</ele>
        <time>2019-08-13T15:23:12Z</time>
      </trkpt>
      <trkpt lat="44.97306" lon="0.73165">
        <ele>142.6</ele>
        <time>2019-08-13T15:23:27Z</time>
      </trkpt>
      <trkpt lat="44.97329" lon="0.73116">
        <ele>143.5</ele>
        <time>2019-08-13T15:23:42Z</time>
      </trkpt>
      <trkpt lat="44.97362" lon="0.73091">
        <ele>145.7</ele>
        <time>2019-08-13T15:23:57Z</time>
      </trkpt>
      <trkpt lat="44.97386" lon="0.7306">
        <ele>150.3</ele>
        <time>2019-08-13T15:24:12Z</time>
      </trkpt>
      <trkpt lat="44.97415" lon="0.73034">
        <ele>155.4</ele>
        <time>2019-08-13T15:24:27Z</time>
      </trkpt>
      <trkpt lat="44.97441" lon="0.73009">
        <ele>159.9</ele>
        <time>2019-08-13T15:24:42Z</time>
      </trkpt>
      <trkpt lat="44.97468" lon="0.72986">
        <ele>163.2</ele>
        <time>2019-08-13T15:24:57Z</time>
      </trkpt>
      <trkpt lat="44.97496" lon="0.72958">
        <ele>169.6</ele>
        <time>2019-08-13T15:25:12Z</time>
      </trkpt>
      <trkpt lat="44.97524" lon="0.72923">
        <ele>172.9</ele>
        <time>2019-08-13T15:25:27Z</time>
      </trkpt>
      <trkpt lat="44.97553" lon="0.72894">
        <ele>171.9</ele>
        <time>2019-08-13T15:25:42Z</time>
      </trkpt>
      <trkpt lat="44.97592" lon="0.72903">
        <ele>170.5</ele>
        <time>2019-08-13T15:25:57Z</time>
      </trkpt>
      <trkpt lat="44.97634" lon="0.72879">
        <ele>167.3</ele>
        <time>2019-08-13T15:26:12Z</time>
      </trkpt>
      <trkpt lat="44.97671" lon="0.72866">
        <ele>164.3</ele>
        <time>2019-08-13T15:26:27Z</time>
      </trkpt>
      <trkpt lat="44.97715" lon="0.72848">
        <ele>154.1</ele>
        <time>2019-08-13T15:26:42Z</time>
      </trkpt>
      <trkpt lat="44.97756" lon="0.72835">
        <ele>143.7</ele>
        <time>2019-08-13T15:26:57Z</time>
      </trkpt>
      <trkpt lat="44.97791" lon="0.72809">
        <ele>139.2</ele>
        <time>2019-08-13T15:27:12Z</time>
      </trkpt>
      <trkpt lat="44.97839" lon="0.72784">
        <ele>136.7</ele>
        <time>2019-08-13T15:27:27Z</time>
      </trkpt>
      <trkpt lat="44.97882" lon="0.72778">
        <ele>137.2</ele>
        <time>2019-08-13T15:27:42Z</time>
      </trkpt>
      <trkpt lat="44.97921" lon="0.72757">
        <ele>137.5</ele>
        <time>2019-08-13T15:27:57Z</time>
      </trkpt>
      <trkpt lat="44.97959" lon="0.7274">
        <ele>138.5</ele>
        <time>2019-08-13T15:28:12Z</time>
      </trkpt>
      <trkpt lat="44.97943" lon="0.72686">
        <ele>138.7</ele>
        <time>2019-08-13T15:28:27Z</time>
      </trkpt>
      <trkpt lat="44.9792" lon="0.72634">
        <ele>139.3</ele>
        <time>2019-08-13T15:28:42Z</time>
      </trkpt>
      <trkpt lat="44.97879" lon="0.72633">
        <ele>140.8</ele>
        <time>2019-08-13T15:28:57Z</time>
      </trkpt>
      <trkpt lat="44.97833" lon="0.72644">
        <ele>140.1</ele>
        <time>2019-08-13T15:29:12Z</time>
      </trkpt>
      <trkpt lat="44.97788" lon="0.72635">
        <ele>140.5</ele>
        <time>2019-08-13T15:29:27Z</time>
      </trkpt>
      <trkpt lat="44.97747" lon="0.72596">
        <ele>138.7</ele>
        <time>2019-08-13T15:29:42Z</time>
      </trkpt>
      <trkpt lat="44.9772" lon="0.72554">
        <ele>137.4</ele>
        <time>2019-08-13T15:29:57Z</time>
      </trkpt>
      <trkpt lat="44.97694" lon="0.72499">
        <ele>137.1</ele>
        <time>2019-08-13T15:30:12Z</time>
      </trkpt>
      <trkpt lat="44.97665" lon="0.72446">
        <ele>136.7</ele>
        <time>2019-08-13T15:30:27Z</time>
      </trkpt>
      <trkpt lat="44.97642" lon="0.7239">
        <ele>136.2</ele>
        <time>2019-08-13T15:30:42Z</time>
      </trkpt>
      <trkpt lat="44.9764" lon="0.72349">
        <ele>136.1</ele>
        <time>2019-08-13T15:30:57Z</time>
      </trkpt>
      <trkpt lat="44.9766" lon="0.724">
        <ele>138</ele>
        <time>2019-08-13T15:31:12Z</time>
      </trkpt>
      <trkpt lat="44.97688" lon="0.72426">
        <ele>142.5</ele>
        <time>2019-08-13T15:31:27Z</time>
      </trkpt>
      <trkpt lat="44.97709" lon="0.72429">
        <ele>145.3</ele>
        <time>2019-08-13T15:31:37Z</time>
      </trkpt>
      <trkpt lat="44.97739" lon="0.72431">
        <ele>150.1</ele>
        <time>2019-08-13T15:31:52Z</time>
      </trkpt>
      <trkpt lat="44.97766" lon="0.72428">
        <ele>156.2</ele>
        <time>2019-08-13T15:32:07Z</time>
      </trkpt>
      <trkpt lat="44.97791" lon="0.72409">
        <ele>161.7</ele>
        <time>2019-08-13T15:32:22Z</time>
      </trkpt>
      <trkpt lat="44.97817" lon="0.72387">
        <ele>164.9</ele>
        <time>2019-08-13T15:32:37Z</time>
      </trkpt>
      <trkpt lat="44.97843" lon="0.72365">
        <ele>168.3</ele>
        <time>2019-08-13T15:32:52Z</time>
      </trkpt>
      <trkpt lat="44.97873" lon="0.72344">
        <ele>170</ele>
        <time>2019-08-13T15:33:07Z</time>
      </trkpt>
      <trkpt lat="44.97904" lon="0.72315">
        <ele>170.6</ele>
        <time>2019-08-13T15:33:22Z</time>
      </trkpt>
      <trkpt lat="44.97937" lon="0.72293">
        <ele>171.5</ele>
        <time>2019-08-13T15:33:37Z</time>
      </trkpt>
      <trkpt lat="44.97968" lon="0.72266">
        <ele>172.4</ele>
        <time>2019-08-13T15:33:52Z</time>
      </trkpt>
      <trkpt lat="44.98002" lon="0.72242">
        <ele>175</ele>
        <time>2019-08-13T15:34:07Z</time>
      </trkpt>
      <trkpt lat="44.98032" lon="0.72211">
        <ele>176.5</ele>
        <time>2019-08-13T15:34:22Z</time>
      </trkpt>
      <trkpt lat="44.98053" lon="0.72168">
        <ele>177.7</ele>
        <time>2019-08-13T15:34:37Z</time>
      </trkpt>
      <trkpt lat="44.98086" lon="0.72136">
        <ele>178.9</ele>
        <time>2019-08-13T15:34:52Z</time>
      </trkpt>
      <trkpt lat="44.98113" lon="0.72093">
        <ele>179.3</ele>
        <time>2019-08-13T15:35:07Z</time>
      </trkpt>
      <trkpt lat="44.98128" lon="0.72044">
        <ele>180.2</ele>
        <time>2019-08-13T15:35:22Z</time>
      </trkpt>
      <trkpt lat="44.98146" lon="0.71999">
        <ele>182.6</ele>
        <time>2019-08-13T15:35:37Z</time>
      </trkpt>
      <trkpt lat="44.98177" lon="0.71958">
        <ele>185</ele>
        <time>2019-08-13T15:35:52Z</time>
      </trkpt>
      <trkpt lat="44.982" lon="0.71917">
        <ele>185.9</ele>
        <time>2019-08-13T15:36:07Z</time>
      </trkpt>
      <trkpt lat="44.98232" lon="0.71879">
        <ele>186.7</ele>
        <time>2019-08-13T15:36:22Z</time>
      </trkpt>
      <trkpt lat="44.98268" lon="0.71856">
        <ele>187.5</ele>
        <time>2019-08-13T15:36:37Z</time>
      </trkpt>
      <trkpt lat="44.98294" lon="0.7181">
        <ele>189.1</ele>
        <time>2019-08-13T15:36:52Z</time>
      </trkpt>
      <trkpt lat="44.98322" lon="0.71773">
        <ele>189.9</ele>
        <time>2019-08-13T15:37:07Z</time>
      </trkpt>
      <trkpt lat="44.98343" lon="0.71744">
        <ele>188.1</ele>
        <time>2019-08-13T15:37:22Z</time>
      </trkpt>
      <trkpt lat="44.98383" lon="0.71775">
        <ele>183.5</ele>
        <time>2019-08-13T15:37:37Z</time>
      </trkpt>
      <trkpt lat="44.98422" lon="0.71789">
        <ele>179.4</ele>
        <time>2019-08-13T15:37:52Z</time>
      </trkpt>
      <trkpt lat="44.98467" lon="0.71807">
        <ele>174.7</ele>
        <time>2019-08-13T15:38:07Z</time>
      </trkpt>
      <trkpt lat="44.9851" lon="0.71821">
        <ele>172.3</ele>
        <time>2019-08-13T15:38:22Z</time>
      </trkpt>
      <trkpt lat="44.9855" lon="0.71848">
        <ele>177.9</ele>
        <time>2019-08-13T15:38:37Z</time>
      </trkpt>
      <trkpt lat="44.98556" lon="0.719">
        <ele>177.1</ele>
        <time>2019-08-13T15:38:52Z</time>
      </trkpt>
      <trkpt lat="44.98566" lon="0.71961">
        <ele>176.2</ele>
        <time>2019-08-13T15:39:07Z</time>
      </trkpt>
      <trkpt lat="44.98574" lon="0.72015">
        <ele>175.4</ele>
        <time>2019-08-13T15:39:22Z</time>
      </trkpt>
      <trkpt lat="44.98581" lon="0.72075">
        <ele>174.5</ele>
        <time>2019-08-13T15:39:37Z</time>
      </trkpt>
      <trkpt lat="44.98585" lon="0.72134">
        <ele>173.5</ele>
        <time>2019-08-13T15:39:52Z</time>
      </trkpt>
      <trkpt lat="44.98565" lon="0.72182">
        <ele>171.6</ele>
        <time>2019-08-13T15:40:07Z</time>
      </trkpt>
      <trkpt lat="44.98569" lon="0.72241">
        <ele>169.5</ele>
        <time>2019-08-13T15:40:22Z</time>
      </trkpt>
      <trkpt lat="44.98616" lon="0.72256">
        <ele>167.1</ele>
        <time>2019-08-13T15:40:37Z</time>
      </trkpt>
      <trkpt lat="44.98641" lon="0.72307">
        <ele>169</ele>
        <time>2019-08-13T15:40:52Z</time>
      </trkpt>
    </trkseg>
  </trk>
</gpx>